sensor_id;sensor_type;location;lat;lon;timestamp;P1;durP1;ratioP1;P2;durP2;ratioP2
72621;SDS011;60665;53.506;9.582;2023-01-23T05:00:50;7.75;;;3.78;;
72621;SDS011;60665;53.506;9.582;2023-01-23T05:03:15;9.05;;;4.25;;
72621;SDS011;60665;53.506;9.582;2023-01-23T05:05:45;10.02;;;4.65;;
72621;SDS011;60665;53.506;9.582;2023-01-23T05:08:11;11.55;;;4.35;;
72621;SDS011;60665;53.506;9.582;2023-01-23T05:10:37;8.65;;;4.30;;
72621;SDS011;60665;53.506;9.582;2023-01-23T05:13:03;8.38;;;4.13;;
72621;SDS011;60665;53.506;9.582;2023-01-23T05:15:28;9.13;;;4.22;;
72621;SDS011;60665;53.506;9.582;2023-01-23T05:17:54;8.20;;;4.40;;
72621;SDS011;60665;53.506;9.582;2023-01-23T05:20:19;7.90;;;3.63;;
72621;SDS011;60665;53.506;9.582;2023-01-23T05:22:47;7.32;;;3.80;;
72621;SDS011;60665;53.506;9.582;2023-01-23T05:25:19;9.45;;;3.97;;
72621;SDS011;60665;53.506;9.582;2023-01-23T05:27:49;6.50;;;3.67;;
72621;SDS011;60665;53.506;9.582;2023-01-23T05:30:15;9.05;;;3.83;;
72621;SDS011;60665;53.506;9.582;2023-01-23T05:32:41;8.27;;;3.90;;
72621;SDS011;60665;53.506;9.582;2023-01-23T05:35:07;7.07;;;3.53;;
72621;SDS011;60665;53.506;9.582;2023-01-23T05:37:33;8.10;;;3.67;;
72621;SDS011;60665;53.506;9.582;2023-01-23T05:39:59;7.97;;;3.30;;
72621;SDS011;60665;53.506;9.582;2023-01-23T05:42:24;9.55;;;3.90;;
72621;SDS011;60665;53.506;9.582;2023-01-23T05:44:50;9.48;;;3.90;;
72621;SDS011;60665;53.506;9.582;2023-01-23T05:47:15;8.15;;;3.78;;
72621;SDS011;60665;53.506;9.582;2023-01-23T05:49:40;8.18;;;3.72;;
72621;SDS011;60665;53.506;9.582;2023-01-23T05:52:06;7.80;;;3.50;;
72621;SDS011;60665;53.506;9.582;2023-01-23T05:54:31;7.70;;;3.70;;
72621;SDS011;60665;53.506;9.582;2023-01-23T05:56:57;6.65;;;3.70;;
72621;SDS011;60665;53.506;9.582;2023-01-23T05:59:22;7.28;;;4.10;;
72621;SDS011;60665;53.506;9.582;2023-01-23T06:01:48;6.43;;;3.55;;
72621;SDS011;60665;53.506;9.582;2023-01-23T06:04:13;7.82;;;4.22;;
72621;SDS011;60665;53.506;9.582;2023-01-23T06:06:40;7.70;;;3.42;;
72621;SDS011;60665;53.506;9.582;2023-01-23T06:09:07;8.65;;;3.65;;
72621;SDS011;60665;53.506;9.582;2023-01-23T06:11:32;6.65;;;3.13;;
72621;SDS011;60665;53.506;9.582;2023-01-23T06:14:09;6.53;;;3.70;;
72621;SDS011;60665;53.506;9.582;2023-01-23T06:17:04;7.43;;;3.80;;
72621;SDS011;60665;53.506;9.582;2023-01-23T06:19:36;6.53;;;3.50;;
72621;SDS011;60665;53.506;9.582;2023-01-23T06:22:02;6.53;;;3.38;;
72621;SDS011;60665;53.506;9.582;2023-01-23T06:24:27;7.47;;;3.55;;
72621;SDS011;60665;53.506;9.582;2023-01-23T06:26:53;6.43;;;3.80;;
72621;SDS011;60665;53.506;9.582;2023-01-23T06:29:19;6.53;;;3.63;;
72621;SDS011;60665;53.506;9.582;2023-01-23T06:31:44;7.75;;;3.55;;
72621;SDS011;60665;53.506;9.582;2023-01-23T06:34:11;7.50;;;3.58;;
72621;SDS011;60665;53.506;9.582;2023-01-23T06:36:37;6.68;;;3.50;;
72621;SDS011;60665;53.506;9.582;2023-01-23T06:39:04;7.22;;;3.75;;
72621;SDS011;60665;53.506;9.582;2023-01-23T06:41:30;7.45;;;3.45;;
72621;SDS011;60665;53.506;9.582;2023-01-23T06:43:55;7.47;;;4.13;;
72621;SDS011;60665;53.506;9.582;2023-01-23T06:46:20;6.43;;;3.17;;
72621;SDS011;60665;53.506;9.582;2023-01-23T06:48:46;6.35;;;3.95;;
72621;SDS011;60665;53.506;9.582;2023-01-23T06:51:11;7.20;;;3.72;;
72621;SDS011;60665;53.506;9.582;2023-01-23T06:53:37;7.47;;;3.50;;
72621;SDS011;60665;53.506;9.582;2023-01-23T06:56:03;8.73;;;3.83;;
72621;SDS011;60665;53.506;9.582;2023-01-23T06:58:30;5.70;;;3.50;;
72621;SDS011;60665;53.506;9.582;2023-01-23T07:00:56;5.90;;;3.78;;
72621;SDS011;60665;53.506;9.582;2023-01-23T07:03:21;10.05;;;3.55;;
72621;SDS011;60665;53.506;9.582;2023-01-23T07:05:47;8.50;;;3.80;;
72621;SDS011;60665;53.506;9.582;2023-01-23T16:29:54;23.73;;;8.73;;
72621;SDS011;60665;53.506;9.582;2023-01-23T16:32:20;24.98;;;9.20;;
72621;SDS011;60665;53.506;9.582;2023-01-23T16:34:45;28.83;;;10.68;;
72621;SDS011;60665;53.506;9.582;2023-01-23T16:37:14;24.25;;;10.05;;
72621;SDS011;60665;53.506;9.582;2023-01-23T16:39:41;23.60;;;10.13;;
72621;SDS011;60665;53.506;9.582;2023-01-23T16:42:40;24.60;;;9.77;;
72621;SDS011;60665;53.506;9.582;2023-01-23T16:44:59;19.95;;;9.10;;
72621;SDS011;60665;53.506;9.582;2023-01-23T16:47:24;22.60;;;8.45;;
72621;SDS011;60665;53.506;9.582;2023-01-23T16:49:50;20.13;;;8.55;;
72621;SDS011;60665;53.506;9.582;2023-01-23T16:52:15;21.40;;;8.88;;
72621;SDS011;60665;53.506;9.582;2023-01-23T16:54:41;19.52;;;8.65;;
72621;SDS011;60665;53.506;9.582;2023-01-23T16:57:09;22.15;;;9.82;;
72621;SDS011;60665;53.506;9.582;2023-01-23T16:59:36;19.70;;;8.75;;
72621;SDS011;60665;53.506;9.582;2023-01-23T17:02:11;20.23;;;9.18;;
72621;SDS011;60665;53.506;9.582;2023-01-23T17:04:50;19.80;;;9.57;;
72621;SDS011;60665;53.506;9.582;2023-01-23T17:07:16;18.85;;;8.80;;
72621;SDS011;60665;53.506;9.582;2023-01-23T17:09:43;21.92;;;9.15;;
72621;SDS011;60665;53.506;9.582;2023-01-23T17:12:13;20.08;;;10.23;;
72621;SDS011;60665;53.506;9.582;2023-01-23T17:14:41;20.73;;;9.35;;
72621;SDS011;60665;53.506;9.582;2023-01-23T17:17:09;20.52;;;9.07;;
72621;SDS011;60665;53.506;9.582;2023-01-23T17:19:38;19.73;;;9.25;;
72621;SDS011;60665;53.506;9.582;2023-01-23T17:22:05;22.00;;;9.50;;
72621;SDS011;60665;53.506;9.582;2023-01-23T17:24:54;20.52;;;8.55;;
72621;SDS011;60665;53.506;9.582;2023-01-23T17:27:20;19.92;;;8.90;;
72621;SDS011;60665;53.506;9.582;2023-01-23T17:29:45;21.80;;;9.98;;
72621;SDS011;60665;53.506;9.582;2023-01-23T17:32:54;20.70;;;9.40;;
72621;SDS011;60665;53.506;9.582;2023-01-23T17:35:00;23.35;;;10.93;;
72621;SDS011;60665;53.506;9.582;2023-01-23T17:37:28;35.85;;;17.45;;
72621;SDS011;60665;53.506;9.582;2023-01-23T17:39:53;26.55;;;14.02;;
72621;SDS011;60665;53.506;9.582;2023-01-23T17:42:18;20.65;;;9.00;;
72621;SDS011;60665;53.506;9.582;2023-01-23T17:44:46;24.05;;;11.23;;
72621;SDS011;60665;53.506;9.582;2023-01-23T17:47:11;19.65;;;8.55;;
72621;SDS011;60665;53.506;9.582;2023-01-23T17:49:38;17.00;;;7.85;;
72621;SDS011;60665;53.506;9.582;2023-01-23T17:52:04;27.92;;;11.25;;
72621;SDS011;60665;53.506;9.582;2023-01-23T17:54:30;21.08;;;10.60;;
72621;SDS011;60665;53.506;9.582;2023-01-23T17:56:57;29.55;;;13.95;;
72621;SDS011;60665;53.506;9.582;2023-01-23T17:59:22;34.78;;;14.77;;
72621;SDS011;60665;53.506;9.582;2023-01-23T18:01:48;52.45;;;22.35;;
72621;SDS011;60665;53.506;9.582;2023-01-23T18:04:14;27.35;;;13.20;;
72621;SDS011;60665;53.506;9.582;2023-01-23T18:06:41;24.00;;;12.05;;
72621;SDS011;60665;53.506;9.582;2023-01-23T18:09:07;21.17;;;10.90;;
72621;SDS011;60665;53.506;9.582;2023-01-23T18:11:32;21.85;;;10.13;;
72621;SDS011;60665;53.506;9.582;2023-01-23T18:16:45;22.08;;;10.45;;
72621;SDS011;60665;53.506;9.582;2023-01-23T18:19:15;26.67;;;11.35;;
72621;SDS011;60665;53.506;9.582;2023-01-23T18:21:44;25.25;;;9.38;;
72621;SDS011;60665;53.506;9.582;2023-01-23T18:24:20;18.73;;;10.55;;
72621;SDS011;60665;53.506;9.582;2023-01-23T18:26:50;26.17;;;12.48;;
72621;SDS011;60665;53.506;9.582;2023-01-23T18:37:31;16.70;;;8.13;;
72621;SDS011;60665;53.506;9.582;2023-01-23T18:42:56;19.58;;;7.70;;
72621;SDS011;60665;53.506;9.582;2023-01-23T18:45:41;22.95;;;9.68;;
72621;SDS011;60665;53.506;9.582;2023-01-23T18:48:10;24.00;;;10.20;;
72621;SDS011;60665;53.506;9.582;2023-01-23T18:50:38;21.42;;;10.27;;
72621;SDS011;60665;53.506;9.582;2023-01-23T18:56:15;22.55;;;9.70;;
72621;SDS011;60665;53.506;9.582;2023-01-23T19:01:51;22.90;;;11.52;;
72621;SDS011;60665;53.506;9.582;2023-01-23T19:04:39;18.00;;;8.57;;
72621;SDS011;60665;53.506;9.582;2023-01-23T19:07:13;16.73;;;8.27;;
72621;SDS011;60665;53.506;9.582;2023-01-23T19:09:42;18.83;;;8.98;;
72621;SDS011;60665;53.506;9.582;2023-01-23T19:22:53;16.35;;;8.02;;
72621;SDS011;60665;53.506;9.582;2023-01-23T19:25:24;24.48;;;9.65;;
72621;SDS011;60665;53.506;9.582;2023-01-23T19:27:50;28.00;;;10.85;;
72621;SDS011;60665;53.506;9.582;2023-01-23T19:30:19;24.08;;;10.73;;
72621;SDS011;60665;53.506;9.582;2023-01-23T19:32:46;24.88;;;10.77;;
72621;SDS011;60665;53.506;9.582;2023-01-23T19:35:14;25.58;;;11.65;;
72621;SDS011;60665;53.506;9.582;2023-01-23T19:37:40;26.23;;;11.63;;
72621;SDS011;60665;53.506;9.582;2023-01-23T19:40:06;32.38;;;14.35;;
72621;SDS011;60665;53.506;9.582;2023-01-23T19:42:37;29.55;;;15.10;;
72621;SDS011;60665;53.506;9.582;2023-01-23T19:45:03;20.77;;;10.45;;
72621;SDS011;60665;53.506;9.582;2023-01-23T19:47:29;25.23;;;13.30;;
72621;SDS011;60665;53.506;9.582;2023-01-23T19:49:56;33.67;;;15.63;;
72621;SDS011;60665;53.506;9.582;2023-01-23T19:52:21;21.02;;;10.50;;
72621;SDS011;60665;53.506;9.582;2023-01-23T19:54:47;22.58;;;11.35;;
72621;SDS011;60665;53.506;9.582;2023-01-23T19:57:12;35.95;;;16.40;;
72621;SDS011;60665;53.506;9.582;2023-01-23T19:59:38;19.23;;;9.57;;
72621;SDS011;60665;53.506;9.582;2023-01-23T20:02:08;16.52;;;8.57;;
72621;SDS011;60665;53.506;9.582;2023-01-23T20:04:40;19.67;;;8.75;;
72621;SDS011;60665;53.506;9.582;2023-01-23T20:07:05;16.13;;;8.63;;
72621;SDS011;60665;53.506;9.582;2023-01-23T20:09:31;17.42;;;7.57;;
72621;SDS011;60665;53.506;9.582;2023-01-23T20:11:59;19.65;;;9.02;;
72621;SDS011;60665;53.506;9.582;2023-01-23T20:14:25;18.48;;;8.88;;
72621;SDS011;60665;53.506;9.582;2023-01-23T20:16:51;17.48;;;8.57;;
72621;SDS011;60665;53.506;9.582;2023-01-23T20:19:16;20.98;;;9.43;;
72621;SDS011;60665;53.506;9.582;2023-01-23T20:21:42;18.83;;;9.68;;
72621;SDS011;60665;53.506;9.582;2023-01-23T20:24:08;18.30;;;8.93;;
72621;SDS011;60665;53.506;9.582;2023-01-23T20:26:34;19.48;;;9.43;;
72621;SDS011;60665;53.506;9.582;2023-01-23T20:29:00;15.45;;;8.35;;
72621;SDS011;60665;53.506;9.582;2023-01-23T20:31:25;17.27;;;8.95;;
72621;SDS011;60665;53.506;9.582;2023-01-23T20:33:52;18.35;;;9.55;;
72621;SDS011;60665;53.506;9.582;2023-01-23T20:36:17;19.10;;;9.05;;
72621;SDS011;60665;53.506;9.582;2023-01-23T20:38:43;16.70;;;8.52;;
72621;SDS011;60665;53.506;9.582;2023-01-23T20:41:09;16.48;;;8.68;;
72621;SDS011;60665;53.506;9.582;2023-01-23T20:43:39;15.80;;;8.05;;
72621;SDS011;60665;53.506;9.582;2023-01-23T20:46:07;17.20;;;7.72;;
72621;SDS011;60665;53.506;9.582;2023-01-23T20:48:33;16.15;;;7.70;;
72621;SDS011;60665;53.506;9.582;2023-01-23T20:50:59;15.43;;;7.20;;
72621;SDS011;60665;53.506;9.582;2023-01-23T20:53:25;16.83;;;8.93;;
72621;SDS011;60665;53.506;9.582;2023-01-23T20:56:00;23.02;;;13.43;;
72621;SDS011;60665;53.506;9.582;2023-01-23T20:58:29;26.20;;;11.88;;
72621;SDS011;60665;53.506;9.582;2023-01-23T21:01:14;21.98;;;11.40;;
72621;SDS011;60665;53.506;9.582;2023-01-23T21:03:40;16.83;;;8.13;;
72621;SDS011;60665;53.506;9.582;2023-01-23T21:06:09;18.75;;;8.25;;
72621;SDS011;60665;53.506;9.582;2023-01-23T21:08:36;14.93;;;7.65;;
72621;SDS011;60665;53.506;9.582;2023-01-23T21:13:34;18.00;;;8.60;;
72621;SDS011;60665;53.506;9.582;2023-01-23T21:16:05;13.77;;;7.68;;
72621;SDS011;60665;53.506;9.582;2023-01-23T21:18:38;17.88;;;7.32;;
72621;SDS011;60665;53.506;9.582;2023-01-23T21:21:09;17.95;;;8.00;;
72621;SDS011;60665;53.506;9.582;2023-01-23T21:23:35;15.13;;;8.07;;
72621;SDS011;60665;53.506;9.582;2023-01-23T21:26:01;22.80;;;9.40;;
72621;SDS011;60665;53.506;9.582;2023-01-23T21:28:28;20.25;;;9.00;;
72621;SDS011;60665;53.506;9.582;2023-01-23T21:30:55;19.05;;;9.18;;
72621;SDS011;60665;53.506;9.582;2023-01-23T21:33:21;24.00;;;11.93;;
72621;SDS011;60665;53.506;9.582;2023-01-23T21:35:50;17.70;;;9.25;;
